createdAt,value
2022-09-20T00:00:02.286Z,0.00
2022-09-20T00:01:01.897Z,0.00
2022-09-20T00:02:03.160Z,0.00
2022-09-20T00:03:03.291Z,0.00
2022-09-20T00:04:03.474Z,0.00
2022-09-20T00:05:03.367Z,0.00
2022-09-20T00:06:03.077Z,0.00
2022-09-20T00:07:02.068Z,0.00
2022-09-20T00:08:02.161Z,0.00
2022-09-20T00:09:02.386Z,0.00
2022-09-20T00:10:02.442Z,0.00
2022-09-20T00:11:02.649Z,0.00
2022-09-20T00:12:02.686Z,0.00
2022-09-20T00:13:02.485Z,0.00
2022-09-20T00:14:02.302Z,0.00
2022-09-20T00:15:02.770Z,0.00
2022-09-20T00:16:02.617Z,0.00
2022-09-20T00:17:03.090Z,0.00
2022-09-20T00:18:03.076Z,0.00
2022-09-20T00:19:02.700Z,0.00
2022-09-20T00:20:03.036Z,0.00
2022-09-20T00:21:02.938Z,0.00
2022-09-20T00:22:03.428Z,0.00
2022-09-20T00:23:03.243Z,0.00
2022-09-20T00:24:03.406Z,0.00
2022-09-20T00:25:03.135Z,0.00
2022-09-20T00:26:02.969Z,0.00
2022-09-20T00:27:03.543Z,0.00
2022-09-20T00:28:03.454Z,0.00
2022-09-20T00:29:03.379Z,0.00
2022-09-20T00:30:03.438Z,0.00
2022-09-20T00:31:03.248Z,0.00
2022-09-20T00:32:02.351Z,0.00
2022-09-20T00:33:02.728Z,0.00
2022-09-20T00:34:02.560Z,0.00
2022-09-20T00:35:02.333Z,0.00
2022-09-20T00:36:02.712Z,0.00
2022-09-20T00:37:02.562Z,0.00
2022-09-20T00:38:03.246Z,0.00
2022-09-20T00:39:03.254Z,0.00
2022-09-20T00:40:02.906Z,0.00
2022-09-20T00:41:02.765Z,0.00
2022-09-20T00:42:03.307Z,0.00
2022-09-20T00:43:03.174Z,0.00
2022-09-20T00:44:03.682Z,0.00
2022-09-20T00:45:03.125Z,0.00
2022-09-20T00:46:03.053Z,0.00
2022-09-20T00:47:02.682Z,0.00
2022-09-20T00:48:02.999Z,0.00
2022-09-20T00:49:03.235Z,0.00
2022-09-20T00:50:02.912Z,0.00
2022-09-20T00:51:02.961Z,0.00
2022-09-20T00:52:03.165Z,0.00
2022-09-20T00:53:02.990Z,0.00
2022-09-20T00:54:02.788Z,0.00
2022-09-20T00:55:03.347Z,0.00
2022-09-20T00:56:03.169Z,0.00
2022-09-20T00:57:03.011Z,0.00
2022-09-20T00:58:03.061Z,0.00
2022-09-20T00:59:03.114Z,0.00
2022-09-20T01:00:02.995Z,0.00
2022-09-20T01:01:03.348Z,0.00
2022-09-20T01:02:02.410Z,0.00
2022-09-20T01:03:02.294Z,0.00
2022-09-20T01:04:02.836Z,0.00
2022-09-20T01:05:02.400Z,0.00
2022-09-20T01:06:02.609Z,0.00
2022-09-20T01:07:02.537Z,0.00
2022-09-20T01:08:02.575Z,0.00
2022-09-20T01:09:02.465Z,0.00
2022-09-20T01:10:02.581Z,0.00
2022-09-20T01:11:02.402Z,0.00
2022-09-20T01:12:02.870Z,0.00
2022-09-20T01:13:03.052Z,0.00
2022-09-20T01:14:03.296Z,0.00
2022-09-20T01:15:02.924Z,0.00
2022-09-20T01:16:02.738Z,0.00
2022-09-20T01:17:02.346Z,0.00
2022-09-20T01:18:02.783Z,0.00
2022-09-20T01:19:02.699Z,0.00
2022-09-20T01:20:02.499Z,0.00
2022-09-20T01:21:02.740Z,0.00
2022-09-20T01:22:02.715Z,0.00
2022-09-20T01:23:02.743Z,0.00
2022-09-20T01:24:02.477Z,0.00
2022-09-20T01:25:02.810Z,0.00
2022-09-20T01:26:02.490Z,0.00
2022-09-20T01:27:01.968Z,0.00
2022-09-20T01:28:02.313Z,0.00
2022-09-20T01:29:02.261Z,0.00
2022-09-20T01:30:02.092Z,0.00
2022-09-20T01:31:01.891Z,0.00
2022-09-20T01:32:02.326Z,0.00
2022-09-20T01:33:02.697Z,0.00
2022-09-20T01:34:02.640Z,0.00
2022-09-20T01:35:02.312Z,0.00
2022-09-20T01:36:02.294Z,0.00
2022-09-20T01:37:02.899Z,0.00
2022-09-20T01:38:03.022Z,0.00
2022-09-20T01:39:02.955Z,0.00
2022-09-20T01:40:03.002Z,0.00
2022-09-20T01:41:03.114Z,0.00
2022-09-20T01:42:02.755Z,0.00
2022-09-20T01:43:03.278Z,0.00
2022-09-20T01:44:03.121Z,0.00
2022-09-20T01:45:02.731Z,0.00
2022-09-20T01:46:03.065Z,0.00
2022-09-20T01:47:03.120Z,0.00
2022-09-20T01:48:02.916Z,0.00
2022-09-20T01:49:02.988Z,0.00
2022-09-20T01:50:02.852Z,0.00
2022-09-20T01:51:03.368Z,0.00
2022-09-20T01:52:02.679Z,0.00
2022-09-20T01:53:02.633Z,0.00
2022-09-20T01:54:02.457Z,0.00
2022-09-20T01:55:02.685Z,0.00
2022-09-20T01:56:02.520Z,0.00
2022-09-20T01:57:02.989Z,0.00
2022-09-20T01:58:02.801Z,0.00
2022-09-20T01:59:22.598Z,0.00
2022-09-20T02:00:02.796Z,0.00
2022-09-20T02:01:03.430Z,0.00
2022-09-20T02:02:02.793Z,0.00
2022-09-20T02:03:02.635Z,0.00
2022-09-20T02:04:02.940Z,0.00
2022-09-20T02:05:03.046Z,0.00
2022-09-20T02:06:03.095Z,0.00
2022-09-20T02:07:02.062Z,0.00
2022-09-20T02:08:02.575Z,0.00
2022-09-20T02:09:02.171Z,0.00
2022-09-20T02:10:02.415Z,0.00
2022-09-20T02:11:02.236Z,0.00
2022-09-20T02:12:02.798Z,0.00
2022-09-20T02:13:02.589Z,0.00
2022-09-20T02:14:02.361Z,0.00
2022-09-20T02:15:02.841Z,0.00
2022-09-20T02:16:02.607Z,0.00
2022-09-20T02:17:01.961Z,0.00
2022-09-20T02:18:02.337Z,0.00
2022-09-20T02:19:01.833Z,0.00
2022-09-20T02:20:02.339Z,0.00
2022-09-20T02:21:02.130Z,0.00
2022-09-20T02:22:02.624Z,0.00
2022-09-20T02:23:02.804Z,0.00
2022-09-20T02:24:02.432Z,0.00
2022-09-20T02:25:02.210Z,0.00
2022-09-20T02:26:02.341Z,0.00
2022-09-20T02:27:02.923Z,0.00
2022-09-20T02:28:02.711Z,0.00
2022-09-20T02:29:02.504Z,0.00
2022-09-20T02:30:02.992Z,0.00
2022-09-20T02:31:02.845Z,0.00
2022-09-20T02:32:02.467Z,0.00
2022-09-20T02:33:02.290Z,0.00
2022-09-20T02:34:02.072Z,0.00
2022-09-20T02:35:01.999Z,0.00
2022-09-20T02:36:02.200Z,0.00
2022-09-20T02:37:02.674Z,0.00
2022-09-20T02:38:02.597Z,0.00
2022-09-20T02:39:02.303Z,0.00
2022-09-20T02:40:02.904Z,0.00
2022-09-20T02:41:02.476Z,0.00
2022-09-20T02:42:02.943Z,0.00
2022-09-20T02:43:03.148Z,0.00
2022-09-20T02:44:02.937Z,0.00
2022-09-20T02:45:02.728Z,0.00
2022-09-20T02:46:02.591Z,0.00
2022-09-20T02:47:02.269Z,0.00
2022-09-20T02:48:02.044Z,0.00
2022-09-20T02:49:01.789Z,0.00
2022-09-20T02:50:02.281Z,0.00
2022-09-20T02:51:02.290Z,0.00
2022-09-20T02:52:02.816Z,0.00
2022-09-20T02:53:02.382Z,0.00
2022-09-20T02:54:02.896Z,0.00
2022-09-20T02:55:02.441Z,0.00
2022-09-20T02:56:02.949Z,0.00
2022-09-20T02:57:02.218Z,0.00
2022-09-20T02:58:02.014Z,0.00
2022-09-20T02:59:01.916Z,0.00
2022-09-20T03:00:01.729Z,0.00
2022-09-20T03:01:01.883Z,0.00
2022-09-20T03:02:02.347Z,0.00
2022-09-20T03:03:02.084Z,0.00
2022-09-20T03:04:01.928Z,0.00
2022-09-20T03:05:01.999Z,0.00
2022-09-20T03:06:01.821Z,0.00
2022-09-20T03:07:02.345Z,0.00
2022-09-20T03:08:03.174Z,0.00
2022-09-20T03:09:02.062Z,0.00
2022-09-20T03:10:01.871Z,0.00
2022-09-20T03:11:02.347Z,0.00
2022-09-20T03:12:02.478Z,0.00
2022-09-20T03:13:02.984Z,0.00
2022-09-20T03:14:02.723Z,0.00
2022-09-20T03:15:02.817Z,0.00
2022-09-20T03:16:02.778Z,0.00
2022-09-20T03:17:02.228Z,0.00
2022-09-20T03:18:02.129Z,0.00
2022-09-20T03:19:01.919Z,0.00
2022-09-20T03:20:02.284Z,0.00
2022-09-20T03:21:02.138Z,0.00
2022-09-20T03:22:02.543Z,0.00
2022-09-20T03:23:02.279Z,0.00
2022-09-20T03:24:02.438Z,0.00
2022-09-20T03:25:02.201Z,0.00
2022-09-20T03:26:02.027Z,0.00
2022-09-20T03:27:02.034Z,0.00
2022-09-20T03:28:02.442Z,0.00
2022-09-20T03:29:02.233Z,0.00
2022-09-20T03:30:02.324Z,0.00
2022-09-20T03:31:02.213Z,0.00
2022-09-20T03:32:02.553Z,0.00
2022-09-20T03:33:02.225Z,0.00
2022-09-20T03:34:02.688Z,0.00
2022-09-20T03:35:02.517Z,0.00
2022-09-20T03:36:02.237Z,0.00
2022-09-20T03:37:01.753Z,0.00
2022-09-20T03:38:02.299Z,0.00
2022-09-20T03:39:02.310Z,0.00
2022-09-20T03:40:02.094Z,0.00
2022-09-20T03:41:02.075Z,0.00
2022-09-20T03:42:01.904Z,0.00
2022-09-20T03:43:02.101Z,0.00
2022-09-20T03:44:02.284Z,0.00
2022-09-20T03:45:02.083Z,0.00
2022-09-20T03:46:02.632Z,0.00
2022-09-20T03:47:02.652Z,0.00
2022-09-20T03:48:02.501Z,0.00
2022-09-20T03:49:02.811Z,0.00
2022-09-20T03:50:02.724Z,0.00
2022-09-20T03:51:02.521Z,0.00
2022-09-20T03:52:01.573Z,0.00
2022-09-20T03:53:01.911Z,0.00
2022-09-20T03:54:01.687Z,0.00
2022-09-20T03:55:01.643Z,0.00
2022-09-20T03:56:02.171Z,0.00
2022-09-20T03:57:01.982Z,0.00
2022-09-20T03:58:04.762Z,0.00
2022-09-20T03:59:02.090Z,0.00
2022-09-20T04:00:01.886Z,0.00
2022-09-20T04:01:01.875Z,0.00
2022-09-20T04:02:01.847Z,0.00
2022-09-20T04:03:01.764Z,0.00
2022-09-20T04:04:01.914Z,0.00
2022-09-20T04:05:01.731Z,0.00
2022-09-20T04:06:02.419Z,0.00
2022-09-20T04:07:02.307Z,0.00
2022-09-20T04:08:02.115Z,0.00
2022-09-20T04:09:02.562Z,0.00
2022-09-20T04:10:02.079Z,0.00
2022-09-20T04:11:02.209Z,0.00
2022-09-20T04:12:02.011Z,0.00
2022-09-20T04:13:02.084Z,0.00
2022-09-20T04:14:02.599Z,0.00
2022-09-20T04:15:02.140Z,0.00
2022-09-20T04:16:02.624Z,0.00
2022-09-20T04:17:02.279Z,0.00
2022-09-20T04:18:02.111Z,0.00
2022-09-20T04:19:02.382Z,0.00
2022-09-20T04:20:02.113Z,0.00
2022-09-20T04:21:02.632Z,0.00
2022-09-20T04:22:02.495Z,0.00
2022-09-20T04:23:02.418Z,0.00
2022-09-20T04:24:02.954Z,0.00
2022-09-20T04:25:02.793Z,0.00
2022-09-20T04:26:02.632Z,0.00
2022-09-20T04:27:02.522Z,0.00
2022-09-20T04:28:02.440Z,0.00
2022-09-20T04:29:02.900Z,0.00
2022-09-20T04:30:02.619Z,0.00
2022-09-20T04:31:02.705Z,0.00
2022-09-20T04:32:02.827Z,0.00
2022-09-20T04:33:02.570Z,0.00
2022-09-20T04:34:03.036Z,0.00
2022-09-20T04:35:02.582Z,0.00
2022-09-20T04:36:03.094Z,0.00
2022-09-20T04:37:01.857Z,0.00
2022-09-20T04:38:01.793Z,0.00
2022-09-20T04:39:01.859Z,0.00
2022-09-20T04:40:02.101Z,0.00
2022-09-20T04:41:01.777Z,0.00
2022-09-20T04:42:02.759Z,4.00
2022-09-20T04:43:02.344Z,4.00
2022-09-20T04:44:02.270Z,0.00
2022-09-20T04:45:02.401Z,0.00
2022-09-20T04:46:02.903Z,4.00
2022-09-20T04:47:02.561Z,0.00
2022-09-20T04:48:02.773Z,4.00
2022-09-20T04:49:02.947Z,4.00
2022-09-20T04:50:02.617Z,4.00
2022-09-20T04:51:02.739Z,8.00
2022-09-20T04:52:02.579Z,8.00
2022-09-20T04:53:02.992Z,8.00
2022-09-20T04:54:02.827Z,12.00
2022-09-20T04:55:02.670Z,12.00
2022-09-20T04:56:02.593Z,16.00
2022-09-20T04:57:02.101Z,20.00
2022-09-20T04:58:02.037Z,24.00
2022-09-20T04:59:02.590Z,28.00
2022-09-20T05:00:02.459Z,32.00
2022-09-20T05:01:02.042Z,40.00
2022-09-20T05:02:02.751Z,44.00
2022-09-20T05:03:02.985Z,52.00
2022-09-20T05:04:03.045Z,60.00
2022-09-20T05:05:02.659Z,68.00
2022-09-20T05:06:02.740Z,80.00
2022-09-20T05:07:03.017Z,88.00
2022-09-20T05:08:02.942Z,100.00
2022-09-20T05:09:02.621Z,112.00
2022-09-20T05:10:02.888Z,128.00
2022-09-20T05:11:02.818Z,140.00
2022-09-20T05:12:02.362Z,152.00
2022-09-20T05:13:02.321Z,164.00
2022-09-20T05:14:02.682Z,168.00
2022-09-20T05:15:02.668Z,172.00
2022-09-20T05:16:02.728Z,188.00
2022-09-20T05:17:02.960Z,208.00
2022-09-20T05:18:02.894Z,228.00
2022-09-20T05:19:02.796Z,252.00
2022-09-20T05:20:02.991Z,288.00
2022-09-20T05:21:02.899Z,324.00
2022-09-20T05:22:02.224Z,356.00
2022-09-20T05:23:01.872Z,388.00
2022-09-20T05:24:02.525Z,412.00
2022-09-20T05:25:02.175Z,432.00
2022-09-20T05:26:02.117Z,456.00
2022-09-20T05:27:02.743Z,484.00
2022-09-20T05:28:02.507Z,500.00
2022-09-20T05:29:03.025Z,540.00
2022-09-20T05:30:05.095Z,584.00
2022-09-20T05:31:02.798Z,632.00
2022-09-20T05:32:02.721Z,692.00
2022-09-20T05:33:02.185Z,736.00
2022-09-20T05:34:02.093Z,788.00
2022-09-20T05:35:02.690Z,844.00
2022-09-20T05:36:02.349Z,888.00
2022-09-20T05:37:02.938Z,932.00
2022-09-20T05:38:02.846Z,984.00
2022-09-20T05:39:03.634Z,1080.00
2022-09-20T05:40:02.575Z,1188.00
2022-09-20T05:41:02.631Z,1276.00
2022-09-20T05:42:02.464Z,1400.00
2022-09-20T05:43:02.527Z,1520.00
2022-09-20T05:44:02.097Z,1512.00
2022-09-20T05:45:01.948Z,1468.00
2022-09-20T05:46:01.963Z,1520.00
2022-09-20T05:47:02.664Z,1576.00
2022-09-20T05:48:02.262Z,1592.00
2022-09-20T05:49:02.204Z,1592.00
2022-09-20T05:50:02.807Z,1656.00
2022-09-20T05:51:03.674Z,1704.00
2022-09-20T05:52:03.176Z,1732.00
2022-09-20T05:53:03.337Z,1776.00
2022-09-20T05:54:02.960Z,1852.00
2022-09-20T05:55:02.870Z,1908.00
2022-09-20T05:56:03.168Z,1800.00
2022-09-20T05:57:02.867Z,1740.00
2022-09-20T05:58:02.450Z,1712.00
2022-09-20T05:59:02.815Z,1728.00
2022-09-20T06:00:02.894Z,1820.00
2022-09-20T06:01:03.058Z,1952.00
2022-09-20T06:02:02.593Z,2040.00
2022-09-20T06:03:02.313Z,2056.00
2022-09-20T06:04:02.410Z,1892.00
2022-09-20T06:05:02.417Z,1760.00
2022-09-20T06:06:02.369Z,1760.00
2022-09-20T06:07:02.793Z,1960.00
2022-09-20T06:08:02.785Z,2196.00
2022-09-20T06:09:02.992Z,2232.00
2022-09-20T06:10:02.944Z,2244.00
2022-09-20T06:11:02.996Z,2236.00
2022-09-20T06:12:02.723Z,2120.00
2022-09-20T06:13:02.651Z,2152.00
2022-09-20T06:14:02.122Z,2388.00
2022-09-20T06:15:02.196Z,2540.00
2022-09-20T06:16:02.152Z,2576.00
2022-09-20T06:17:03.053Z,2544.00
2022-09-20T06:18:02.877Z,2820.00
2022-09-20T06:19:02.824Z,3004.00
2022-09-20T06:20:02.769Z,3196.00
2022-09-20T06:21:02.714Z,3276.00
2022-09-20T06:22:03.703Z,3300.00
2022-09-20T06:23:02.053Z,3384.00
2022-09-20T06:24:02.264Z,3440.00
2022-09-20T06:25:02.238Z,3292.00
2022-09-20T06:26:02.186Z,3292.00
2022-09-20T06:27:01.803Z,3388.00
2022-09-20T06:28:01.983Z,3676.00
2022-09-20T06:29:01.878Z,3512.00
2022-09-20T06:30:02.071Z,3312.00
2022-09-20T06:31:02.079Z,3200.00
2022-09-20T06:32:02.434Z,3332.00
2022-09-20T06:33:02.664Z,3172.00
2022-09-20T06:34:02.401Z,3104.00
2022-09-20T06:35:02.404Z,2916.00
2022-09-20T06:36:02.416Z,2988.00
2022-09-20T06:37:02.458Z,3252.00
2022-09-20T06:38:02.484Z,3564.00
2022-09-20T06:39:02.822Z,3532.00
2022-09-20T06:40:02.914Z,3340.00
2022-09-20T06:41:02.596Z,3040.00
2022-09-20T06:42:02.718Z,2940.00
2022-09-20T06:43:02.827Z,3160.00
2022-09-20T06:44:02.798Z,3284.00
2022-09-20T06:45:02.756Z,3512.00
2022-09-20T06:46:02.772Z,3908.00
2022-09-20T06:47:02.107Z,4128.00
2022-09-20T06:48:02.240Z,4224.00
2022-09-20T06:49:02.234Z,4104.00
2022-09-20T06:50:02.192Z,4452.00
2022-09-20T06:51:02.159Z,4492.00
2022-09-20T06:52:02.115Z,4348.00
2022-09-20T06:53:02.248Z,4248.00
2022-09-20T06:54:02.221Z,4348.00
2022-09-20T06:55:02.145Z,4264.00
2022-09-20T06:56:02.200Z,4492.00
2022-09-20T06:57:02.149Z,4400.00
2022-09-20T06:58:02.656Z,4376.00
2022-09-20T06:59:02.090Z,4440.00
2022-09-20T07:00:02.193Z,4696.00
2022-09-20T07:01:02.715Z,5160.00
2022-09-20T07:02:02.605Z,5392.00
2022-09-20T07:03:02.716Z,5024.00
2022-09-20T07:04:02.908Z,4804.00
2022-09-20T07:05:02.982Z,4848.00
2022-09-20T07:06:02.659Z,5120.00
2022-09-20T07:07:06.132Z,5568.00
2022-09-20T07:08:02.652Z,5688.00
2022-09-20T07:09:02.681Z,5500.00
2022-09-20T07:10:02.687Z,4876.00
2022-09-20T07:11:02.790Z,4744.00
2022-09-20T07:12:02.098Z,4656.00
2022-09-20T07:13:02.377Z,4492.00
2022-09-20T07:14:02.024Z,4396.00
2022-09-20T07:15:02.459Z,4436.00
2022-09-20T07:16:02.557Z,3812.00
2022-09-20T07:17:02.543Z,3592.00
2022-09-20T07:18:03.059Z,3168.00
2022-09-20T07:19:02.436Z,2996.00
2022-09-20T07:20:02.821Z,2556.00
2022-09-20T07:21:02.903Z,2192.00
2022-09-20T07:22:02.255Z,1700.00
2022-09-20T07:23:02.707Z,1392.00
2022-09-20T07:24:02.349Z,1272.00
2022-09-20T07:25:02.459Z,1680.00
2022-09-20T07:26:02.439Z,2732.00
2022-09-20T07:27:02.659Z,3356.00
2022-09-20T07:28:02.485Z,3652.00
2022-09-20T07:29:02.936Z,3976.00
2022-09-20T07:30:02.554Z,4852.00
2022-09-20T07:31:02.935Z,5820.00
2022-09-20T07:32:02.998Z,7228.00
2022-09-20T07:33:03.211Z,8408.00
2022-09-20T07:34:03.202Z,10020.00
2022-09-20T07:35:03.055Z,8860.00
2022-09-20T07:36:03.296Z,7684.00
2022-09-20T07:37:02.402Z,6468.00
2022-09-20T07:38:02.804Z,5780.00
2022-09-20T07:39:02.408Z,5052.00
2022-09-20T07:40:02.617Z,5316.00
2022-09-20T07:41:02.515Z,5524.00
2022-09-20T07:42:03.043Z,6196.00
2022-09-20T07:43:02.376Z,7812.00
2022-09-20T07:44:02.569Z,10684.00
2022-09-20T07:45:02.824Z,19072.00
2022-09-20T07:46:02.791Z,10672.00
2022-09-20T07:47:02.643Z,20608.00
2022-09-20T07:48:02.124Z,16800.00
2022-09-20T07:49:02.219Z,8096.00
2022-09-20T07:50:02.415Z,19424.00
2022-09-20T07:51:06.742Z,20544.00
2022-09-20T07:52:02.853Z,8196.00
2022-09-20T07:53:02.506Z,15488.00
2022-09-20T07:54:02.498Z,13132.00
2022-09-20T07:55:03.040Z,21920.00
2022-09-20T07:56:02.641Z,22208.00
2022-09-20T07:57:03.012Z,21024.00
2022-09-20T07:58:03.090Z,24896.00
2022-09-20T07:59:03.203Z,24480.00
2022-09-20T08:00:02.859Z,9640.00
2022-09-20T08:01:03.247Z,9588.00
2022-09-20T08:02:02.377Z,8872.00
2022-09-20T08:03:02.433Z,10652.00
2022-09-20T08:04:02.720Z,26848.00
2022-09-20T08:05:02.472Z,23552.00
2022-09-20T08:06:02.503Z,11736.00
2022-09-20T08:07:02.157Z,27104.00
2022-09-20T08:08:01.894Z,9772.00
2022-09-20T08:09:01.942Z,16256.00
2022-09-20T08:10:02.040Z,8760.00
2022-09-20T08:11:02.110Z,8716.00
2022-09-20T08:14:06.552Z,8112.00
2022-09-20T08:15:02.474Z,12752.00
2022-09-20T08:16:02.125Z,12680.00
2022-09-20T08:17:02.086Z,11832.00
2022-09-20T08:18:01.986Z,13008.00
2022-09-20T08:19:02.111Z,12064.00
2022-09-20T08:20:02.192Z,13392.00
2022-09-20T08:21:02.022Z,27680.00
2022-09-20T08:22:02.375Z,26720.00
2022-09-20T08:23:22.559Z,24576.00
2022-09-20T08:24:02.685Z,18816.00
2022-09-20T08:25:02.775Z,24384.00
2022-09-20T08:26:02.892Z,20832.00
2022-09-20T08:27:02.230Z,9048.00
2022-09-20T08:28:02.498Z,15648.00
2022-09-20T08:29:02.593Z,7744.00
2022-09-20T08:30:02.546Z,8308.00
2022-09-20T08:31:02.336Z,8588.00
2022-09-20T08:32:02.676Z,9112.00
2022-09-20T08:33:02.880Z,9648.00
2022-09-20T08:34:02.756Z,11052.00
2022-09-20T08:35:02.327Z,18080.00
2022-09-20T08:36:02.973Z,20192.00
2022-09-20T08:37:02.172Z,22656.00
2022-09-20T08:40:02.189Z,22176.00
2022-09-20T08:41:01.915Z,20896.00
2022-09-20T08:42:02.380Z,7880.00
2022-09-20T08:43:05.555Z,7148.00
2022-09-20T08:44:02.073Z,7260.00
2022-09-20T08:45:02.217Z,7516.00
2022-09-20T08:46:05.549Z,8064.00
2022-09-20T08:47:02.676Z,10348.00
2022-09-20T08:48:02.388Z,10848.00
2022-09-20T08:49:02.475Z,21984.00
2022-09-20T08:50:09.268Z,9912.00
2022-09-20T08:51:05.600Z,7596.00
2022-09-20T08:52:02.367Z,7684.00
2022-09-20T08:53:02.028Z,9296.00
2022-09-20T08:54:01.831Z,8544.00
2022-09-20T08:55:07.732Z,8304.00
2022-09-20T08:56:02.003Z,8688.00
2022-09-20T08:57:02.682Z,9508.00
2022-09-20T08:58:07.526Z,25792.00
2022-09-20T08:59:02.382Z,16160.00
2022-09-20T09:00:02.216Z,11032.00
2022-09-20T09:01:02.389Z,8840.00
2022-09-20T09:02:02.944Z,8492.00
2022-09-20T09:03:03.339Z,9584.00
2022-09-20T09:04:03.175Z,6556.00
2022-09-20T09:05:02.753Z,5752.00
2022-09-20T09:06:06.480Z,5596.00
2022-09-20T09:07:02.710Z,5592.00
2022-09-20T09:08:04.677Z,5888.00
2022-09-20T09:09:02.570Z,6524.00
2022-09-20T09:10:02.688Z,8272.00
2022-09-20T09:11:02.988Z,5948.00
2022-09-20T09:12:01.937Z,6400.00
2022-09-20T09:13:02.281Z,8584.00
2022-09-20T09:14:02.437Z,8404.00
2022-09-20T09:15:02.218Z,21184.00
2022-09-20T09:16:01.850Z,20960.00
2022-09-20T09:17:02.405Z,20896.00
2022-09-20T09:18:02.981Z,20640.00
2022-09-20T09:19:02.620Z,20448.00
2022-09-20T09:20:02.901Z,20608.00
2022-09-20T09:21:02.980Z,20608.00
2022-09-20T09:22:02.676Z,20928.00
2022-09-20T09:23:03.228Z,21760.00
2022-09-20T09:24:02.717Z,22880.00
2022-09-20T09:25:03.306Z,24000.00
2022-09-20T09:26:02.755Z,24928.00
2022-09-20T09:27:01.936Z,25600.00
2022-09-20T09:28:02.350Z,25248.00
2022-09-20T09:29:02.341Z,24864.00
2022-09-20T09:30:02.279Z,25216.00
2022-09-20T09:31:02.397Z,8476.00
2022-09-20T09:32:02.104Z,8556.00
2022-09-20T09:33:02.125Z,9144.00
2022-09-20T09:34:02.106Z,9164.00
2022-09-20T09:35:02.099Z,8832.00
2022-09-20T09:36:02.049Z,8848.00
2022-09-20T09:37:02.435Z,8976.00
2022-09-20T09:38:02.903Z,9352.00
2022-09-20T09:39:02.382Z,9560.00
2022-09-20T09:40:02.777Z,9660.00
2022-09-20T09:41:02.672Z,9576.00
2022-09-20T09:42:02.433Z,9056.00
2022-09-20T09:43:02.477Z,7728.00
2022-09-20T09:44:02.561Z,6996.00
2022-09-20T09:45:02.473Z,6904.00
2022-09-20T09:46:02.568Z,7792.00
2022-09-20T09:47:02.884Z,7720.00
2022-09-20T09:48:03.305Z,7452.00
2022-09-20T09:49:03.341Z,10940.00
2022-09-20T09:50:08.884Z,7336.00
2022-09-20T09:51:03.107Z,6396.00
2022-09-20T09:52:02.488Z,5944.00
2022-09-20T09:53:02.489Z,19296.00
2022-09-20T09:54:02.458Z,16448.00
2022-09-20T09:55:05.472Z,15008.00
2022-09-20T09:56:02.644Z,13692.00
2022-09-20T09:57:02.572Z,12732.00
2022-09-20T09:58:02.733Z,11988.00
2022-09-20T09:59:02.669Z,11488.00
2022-09-20T10:00:05.487Z,11032.00
2022-09-20T10:01:02.989Z,10664.00
2022-09-20T10:02:03.318Z,10280.00
2022-09-20T10:03:03.496Z,10420.00
2022-09-20T10:04:03.305Z,10092.00
2022-09-20T10:05:03.173Z,9528.00
2022-09-20T10:06:03.304Z,9212.00
2022-09-20T10:07:02.830Z,9260.00
2022-09-20T10:08:02.669Z,7564.00
2022-09-20T10:09:02.776Z,10612.00
2022-09-20T10:10:02.867Z,11480.00
2022-09-20T10:11:02.962Z,12308.00
2022-09-20T10:12:02.884Z,12908.00
2022-09-20T10:13:02.826Z,12992.00
2022-09-20T10:14:02.911Z,15680.00
2022-09-20T10:15:03.292Z,13872.00
2022-09-20T10:16:03.042Z,12432.00
2022-09-20T10:17:03.406Z,11244.00
2022-09-20T10:18:03.299Z,9908.00
2022-09-20T10:19:03.094Z,8672.00
2022-09-20T10:20:03.466Z,7412.00
2022-09-20T10:21:03.634Z,6160.00
2022-09-20T10:22:02.673Z,5152.00
2022-09-20T10:23:30.461Z,4488.00
2022-09-20T10:24:04.217Z,3940.00
2022-09-20T10:25:02.621Z,3424.00
2022-09-20T10:26:02.555Z,2880.00
2022-09-20T10:27:03.187Z,2448.00
2022-09-20T10:28:03.392Z,2156.00
2022-09-20T10:29:03.275Z,2028.00
2022-09-20T10:30:03.044Z,2024.00
2022-09-20T10:31:03.039Z,2056.00
2022-09-20T10:32:03.305Z,2176.00
2022-09-20T10:33:03.285Z,2316.00
2022-09-20T10:34:03.643Z,2420.00
2022-09-20T10:35:03.543Z,2584.00
2022-09-20T10:36:03.075Z,2744.00
2022-09-20T10:37:03.479Z,2828.00
2022-09-20T10:38:03.329Z,2844.00
2022-09-20T10:39:03.502Z,2972.00
2022-09-20T10:40:03.629Z,3128.00
2022-09-20T10:41:03.489Z,3272.00
2022-09-20T10:42:03.173Z,3440.00
2022-09-20T10:43:03.377Z,3648.00
2022-09-20T10:44:05.651Z,3836.00
2022-09-20T10:45:03.316Z,4024.00
2022-09-20T10:46:28.049Z,4216.00
2022-09-20T10:47:02.642Z,4396.00
2022-09-20T10:48:02.645Z,4576.00
2022-09-20T10:49:02.895Z,4760.00
2022-09-20T10:50:02.480Z,4984.00
2022-09-20T10:51:02.633Z,5148.00
2022-09-20T10:52:03.178Z,5332.00
2022-09-20T10:53:03.021Z,5564.00
2022-09-20T10:54:03.027Z,5884.00
2022-09-20T10:55:03.398Z,6164.00
2022-09-20T10:56:03.201Z,6488.00
2022-09-20T10:57:02.794Z,6724.00
2022-09-20T10:58:02.910Z,7172.00
2022-09-20T10:59:02.779Z,7388.00
2022-09-20T11:00:02.785Z,7704.00
2022-09-20T11:01:02.483Z,7880.00
2022-09-20T11:02:02.579Z,7940.00
2022-09-20T11:03:02.563Z,8116.00
2022-09-20T11:04:02.118Z,8272.00
2022-09-20T11:05:02.122Z,8356.00
2022-09-20T11:06:02.104Z,8432.00
2022-09-20T11:07:02.197Z,8548.00
2022-09-20T11:08:01.744Z,8916.00
2022-09-20T11:09:01.750Z,9348.00
2022-09-20T11:10:02.303Z,9692.00
2022-09-20T11:11:02.032Z,9964.00
2022-09-20T11:12:02.262Z,10196.00
2022-09-20T11:13:02.294Z,10276.00
2022-09-20T11:14:02.290Z,10372.00
2022-09-20T11:15:02.408Z,10528.00
2022-09-20T11:16:02.131Z,10624.00
2022-09-20T11:17:03.043Z,10512.00
2022-09-20T11:18:02.654Z,10180.00
2022-09-20T11:19:03.083Z,9768.00
2022-09-20T11:20:07.240Z,9492.00
2022-09-20T11:21:02.811Z,9456.00
2022-09-20T11:22:02.526Z,9656.00
2022-09-20T11:23:02.206Z,9964.00
2022-09-20T11:24:02.289Z,10208.00
2022-09-20T11:25:02.450Z,10420.00
2022-09-20T11:26:02.469Z,10700.00
2022-09-20T11:27:03.116Z,10960.00
2022-09-20T11:28:02.975Z,11092.00
2022-09-20T11:29:02.907Z,11048.00
2022-09-20T11:30:02.825Z,10992.00
2022-09-20T11:31:02.768Z,11036.00
2022-09-20T11:32:02.454Z,11208.00
2022-09-20T11:33:02.488Z,11388.00
2022-09-20T11:34:02.465Z,11388.00
2022-09-20T11:35:02.447Z,10900.00
2022-09-20T11:36:02.185Z,10844.00
2022-09-20T11:37:02.927Z,11000.00
2022-09-20T11:38:02.824Z,11672.00
2022-09-20T11:39:02.867Z,11884.00
2022-09-20T11:40:02.684Z,12328.00
2022-09-20T11:41:02.766Z,12692.00
2022-09-20T11:42:03.015Z,13040.00
2022-09-20T11:43:02.413Z,13684.00
2022-09-20T11:44:02.405Z,14260.00
2022-09-20T11:45:02.400Z,14976.00
2022-09-20T11:46:02.451Z,15328.00
2022-09-20T11:47:03.106Z,14912.00
2022-09-20T11:48:02.795Z,14520.00
2022-09-20T11:49:02.743Z,14432.00
2022-09-20T11:50:03.089Z,13444.00
2022-09-20T11:51:03.120Z,11596.00
2022-09-20T11:52:02.049Z,9632.00
2022-09-20T11:53:02.199Z,7860.00
2022-09-20T11:54:02.516Z,6368.00
2022-09-20T11:55:02.556Z,5284.00
2022-09-20T11:56:02.660Z,4820.00
2022-09-20T11:57:02.203Z,4600.00
2022-09-20T11:58:02.687Z,4752.00
2022-09-20T11:59:02.204Z,5012.00
2022-09-20T12:00:02.652Z,5560.00
2022-09-20T12:01:02.372Z,6152.00
2022-09-20T12:02:02.651Z,7164.00
2022-09-20T12:03:03.029Z,8300.00
2022-09-20T12:04:30.741Z,9412.00
2022-09-20T12:05:02.944Z,9840.00
2022-09-20T12:06:02.961Z,10836.00
2022-09-20T12:07:08.378Z,10492.00
2022-09-20T12:08:03.006Z,10880.00
2022-09-20T12:09:03.037Z,11008.00
2022-09-20T12:10:02.827Z,10740.00
2022-09-20T12:11:02.732Z,10200.00
2022-09-20T12:12:03.178Z,10240.00
2022-09-20T12:13:03.317Z,9900.00
2022-09-20T12:14:03.318Z,9420.00
2022-09-20T12:15:03.276Z,8804.00
2022-09-20T12:16:03.540Z,7984.00
2022-09-20T12:17:03.421Z,7052.00
2022-09-20T12:18:06.744Z,6312.00
2022-09-20T12:19:02.499Z,5868.00
2022-09-20T12:20:03.036Z,5608.00
2022-09-20T12:21:02.943Z,5468.00
2022-09-20T12:22:02.916Z,5384.00
2022-09-20T12:23:03.421Z,5304.00
2022-09-20T12:24:03.372Z,5484.00
2022-09-20T12:25:03.560Z,6028.00
2022-09-20T12:26:03.588Z,6624.00
2022-09-20T12:27:03.615Z,7280.00
2022-09-20T12:28:03.043Z,7836.00
2022-09-20T12:29:03.046Z,8492.00
2022-09-20T12:30:02.811Z,9096.00
2022-09-20T12:31:03.224Z,9712.00
2022-09-20T12:32:03.335Z,10332.00
2022-09-20T12:33:02.969Z,10624.00
2022-09-20T12:34:02.991Z,10760.00